Flight Track Log - Related Links

Times and Time Zones

All times are in EDT time to prevent confusion due to time zone crossing. See the ANA651 flight status page for this flight to view local times or setup timezone preferences in your user account.

Time Position Orientation Groundspeed Altitude Reporting Facility
EDT Latitude Longitude Course Direction KTS MPH feet Rate Location/Type
Sun 07:05:00 PM 35.3351 137.9187 262° West  Level Estimated
Sun 07:06:00 PM 35.3196 137.7950 261° West  Level Estimated
Sun 07:07:00 PM 35.3040 137.6713 261° West  Level Estimated
Sun 07:08:00 PM 35.2883 137.5477 261° West  Level Estimated
Sun 07:09:00 PM 35.2724 137.4241 261° West  Level Estimated
Sun 07:10:00 PM 35.2564 137.3006 261° West  Level Estimated
Sun 07:11:00 PM 35.2403 137.1772 261° West  Level Estimated
Sun 07:12:00 PM 35.2241 137.0537 261° West  Level Estimated
Sun 07:13:00 PM 35.2077 136.9304 261° West  Level Estimated
Sun 07:14:00 PM 35.1912 136.8071 261° West  Level Estimated
Sun 07:15:00 PM 35.1746 136.6838 261° West  Level Estimated
Sun 07:16:00 PM 35.1578 136.5606 261° West  Level Estimated
Sun 07:17:00 PM 35.1410 136.4374 261° West  Level Estimated
Sun 07:18:00 PM 35.1240 136.3143 260° West  Level Estimated
Sun 07:19:00 PM 35.1069 136.1913 260° West  Level Estimated
Sun 07:20:00 PM 35.0896 136.0683 260° West  Level Estimated
Sun 07:21:00 PM 35.0723 135.9453 260° West  Level Estimated
Sun 07:22:00 PM 35.0548 135.8224 260° West  Level Estimated
Sun 07:23:00 PM 35.0372 135.6996 260° West  Level Estimated
Sun 07:24:00 PM 35.0194 135.5768 260° West  Level Estimated
Sun 07:25:00 PM 35.0016 135.4540 260° West  Level Estimated
Sun 07:26:00 PM 34.9836 135.3313 260° West  Level Estimated
Sun 07:27:00 PM 34.9655 135.2087 260° West  Level Estimated
Sun 07:28:00 PM 34.9473 135.0861 260° West  Level Estimated
Sun 07:29:00 PM 34.9289 134.9636 260° West  Level Estimated
Sun 07:30:00 PM 34.9104 134.8411 260° West  Level Estimated
Sun 07:31:00 PM 34.8918 134.7187 260° West  Level Estimated
Sun 07:32:00 PM 34.8731 134.5963 259° West  Level Estimated
Sun 07:33:00 PM 34.8543 134.4740 259° West  Level Estimated
Sun 07:34:00 PM 34.8353 134.3518 259° West  Level Estimated
Sun 07:35:00 PM 34.8162 134.2296 259° West  Level Estimated
Sun 07:36:00 PM 34.7970 134.1074 259° West  Level Estimated
Sun 07:37:00 PM 34.7777 133.9854 259° West  Level Estimated
Sun 07:38:00 PM 34.7582 133.8633 259° West  Level Estimated
Sun 07:39:00 PM 34.7569 133.8553 259° West  Level Estimated
Sun 07:40:00 PM 34.7569 133.8553 338° Northwest  Level Estimated
Sun 07:41:00 PM 34.7569 133.8553 338° Northwest  Level Estimated
Sun 07:42:00 PM 34.7569 133.8553 338° Northwest  Level Estimated
Sun 07:43:00 PM 34.7569 133.8553 338° Northwest  Level Estimated
Sun 07:44:00 PM 34.7569 133.8553 338° Northwest  Level Estimated
Sun 07:45:00 PM 34.7569 133.8553 338° Northwest  Level Estimated
Sun 07:46:00 PM 34.7569 133.8553 338° Northwest  Level Estimated
Sun 07:47:00 PM 34.7569 133.8553 338° Northwest  Level Estimated

Login

Don't have an account? Register now (free) for customized features, flight alerts, and more!